Řízení letového provozu České republiky
Letiste: LKPD Aktualizace: 16.12.2017 22:08:11  UTC
 METAR LKPD 16.12. 22:00 ...
METAR LKPD 162200Z 23006KT 9999 FEW040 BKN070 M00/M01 Q1012=
 TAF LKPD 16.12. 17:00 ...
TAF LKPD 161700Z 1618/1718 26006KT CAVOK      BECMG 1618/1621 27008KT BKN040      PROB30 TEMPO 1618/1703 5000 SNRA BKN012      TEMPO 1705/1718 5000 SNRA BKN012=